createdAt,value
2018-08-24T00:01:32.502Z,9.70
2018-08-24T00:06:36.660Z,8.40
2018-08-24T00:11:40.539Z,8.53
2018-08-24T00:16:44.088Z,7.00
2018-08-24T00:21:48.448Z,8.20
2018-08-24T00:26:52.034Z,7.70
2018-08-24T00:31:55.607Z,6.93
2018-08-24T00:36:59.174Z,7.87
2018-08-24T00:42:02.661Z,8.30
2018-08-24T00:47:06.205Z,6.00
2018-08-24T00:52:10.063Z,6.27
2018-08-24T00:57:18.101Z,7.43
2018-08-24T01:02:21.646Z,8.10
2018-08-24T01:07:25.289Z,6.27
2018-08-24T01:12:28.862Z,4.57
2018-08-24T01:17:38.289Z,6.03
2018-08-24T01:22:42.086Z,4.90
2018-08-24T01:27:45.642Z,2.70
2018-08-24T01:32:49.532Z,2.73
2018-08-24T01:37:53.669Z,2.10
2018-08-24T01:42:57.270Z,1.57
2018-08-24T01:48:00.807Z,1.43
2018-08-24T01:53:04.409Z,1.10
2018-08-24T01:58:07.960Z,1.40
2018-08-24T02:03:11.497Z,1.60
2018-08-24T02:08:15.108Z,1.87
2018-08-24T02:13:23.983Z,1.50
2018-08-24T02:19:36.770Z,2.60
2018-08-24T02:24:40.310Z,2.47
2018-08-24T02:29:44.343Z,3.10
2018-08-24T02:34:48.007Z,3.03
2018-08-24T02:39:51.565Z,3.03
2018-08-24T02:44:55.715Z,3.63
2018-08-24T02:49:59.760Z,3.90
2018-08-24T02:55:03.459Z,3.80
2018-08-24T03:00:07.376Z,3.80
2018-08-24T03:05:10.963Z,4.43
2018-08-24T03:10:14.570Z,4.93
2018-08-24T03:15:18.165Z,5.87
2018-08-24T03:20:22.025Z,6.27
2018-08-24T03:25:25.514Z,5.90
2018-08-24T03:30:29.265Z,6.77
2018-08-24T03:35:32.889Z,7.63
2018-08-24T03:40:36.458Z,7.40
2018-08-24T03:45:40.072Z,8.00
2018-08-24T03:50:43.649Z,8.33
2018-08-24T03:55:47.141Z,8.03
2018-08-24T04:00:54.509Z,9.83
2018-08-24T04:05:58.022Z,7.83
2018-08-24T04:11:01.651Z,9.67
2018-08-24T04:16:05.709Z,14.03
2018-08-24T04:21:09.635Z,9.43
2018-08-24T04:26:14.762Z,9.67
2018-08-24T04:31:18.402Z,9.30
2018-08-24T04:36:21.893Z,14.20
2018-08-24T04:41:25.529Z,10.60
2018-08-24T04:46:29.156Z,11.00
2018-08-24T04:51:32.729Z,10.97
2018-08-24T04:56:36.434Z,10.23
2018-08-24T05:01:39.928Z,9.50
2018-08-24T05:06:45.496Z,9.87
2018-08-24T05:11:49.071Z,12.07
2018-08-24T05:16:52.594Z,10.07
2018-08-24T05:21:56.235Z,12.47
2018-08-24T05:26:59.667Z,10.73
2018-08-24T05:32:04.008Z,12.20
2018-08-24T05:37:07.581Z,19.47
2018-08-24T05:42:11.165Z,23.87
2018-08-24T05:47:14.900Z,26.90
2018-08-24T05:52:18.513Z,29.80
2018-08-24T05:57:23.095Z,28.97
2018-08-24T06:02:26.749Z,29.87
2018-08-24T06:07:30.382Z,28.80
2018-08-24T06:12:33.921Z,28.27
2018-08-24T06:17:42.861Z,27.93
2018-08-24T06:22:46.461Z,26.93
2018-08-24T06:27:50.041Z,31.27
2018-08-24T06:32:53.601Z,32.70
2018-08-24T06:37:57.109Z,30.03
2018-08-24T06:43:00.629Z,29.70
2018-08-24T06:48:04.742Z,30.83
2018-08-24T06:53:08.575Z,32.57
2018-08-24T06:58:12.264Z,29.00
2018-08-24T07:03:15.748Z,31.40
2018-08-24T07:08:19.922Z,32.90
2018-08-24T07:13:23.427Z,38.23
2018-08-24T07:18:26.992Z,35.77
2018-08-24T07:23:30.578Z,34.23
2018-08-24T07:28:34.337Z,36.00
2018-08-24T07:33:38.059Z,37.43
2018-08-24T07:38:41.659Z,34.13
2018-08-24T07:43:45.191Z,38.83
2018-08-24T07:48:48.674Z,33.07
2018-08-24T07:53:52.952Z,33.97
2018-08-24T07:58:56.811Z,30.70
2018-08-24T08:04:01.795Z,30.80
2018-08-24T08:09:07.592Z,31.80
2018-08-24T08:14:11.536Z,32.37
2018-08-24T08:19:15.617Z,29.33
2018-08-24T08:24:19.222Z,27.37
2018-08-24T08:29:28.466Z,26.60
2018-08-24T08:34:36.612Z,27.60
2018-08-24T08:39:40.933Z,30.30
2018-08-24T08:44:45.048Z,29.57
2018-08-24T08:49:48.633Z,28.50
2018-08-24T08:54:52.581Z,23.97
2018-08-24T08:59:56.147Z,21.43
2018-08-24T09:04:59.805Z,22.30
2018-08-24T09:10:04.167Z,16.33
2018-08-24T09:15:07.823Z,18.43
2018-08-24T09:20:16.777Z,12.93
2018-08-24T09:26:25.326Z,10.40
2018-08-24T09:31:31.643Z,7.77
2018-08-24T09:36:35.363Z,11.70
2018-08-24T09:41:39.081Z,5.77
2018-08-24T09:47:49.163Z,5.03
2018-08-24T09:52:58.224Z,8.23
2018-08-24T09:58:01.879Z,2.87
2018-08-24T10:03:10.780Z,3.47
2018-08-24T10:08:19.460Z,5.67
2018-08-24T10:13:24.171Z,6.57
2018-08-24T10:18:30.233Z,4.23
2018-08-24T10:23:33.819Z,5.80
2018-08-24T10:28:37.424Z,6.37
2018-08-24T10:33:41.238Z,4.73
2018-08-24T10:38:44.774Z,5.90
2018-08-24T10:43:48.410Z,6.23
2018-08-24T10:48:52.034Z,4.20
2018-08-24T10:53:56.741Z,4.40
2018-08-24T10:59:00.683Z,4.40
2018-08-24T11:04:04.246Z,7.47
2018-08-24T11:09:09.661Z,7.37
2018-08-24T11:14:13.531Z,5.60
2018-08-24T11:19:17.266Z,6.57
2018-08-24T11:24:21.489Z,6.40
2018-08-24T11:29:25.176Z,5.00
2018-08-24T11:34:29.771Z,4.33
2018-08-24T11:39:33.887Z,5.07
2018-08-24T11:44:37.535Z,5.47
2018-08-24T11:49:41.018Z,3.67
2018-08-24T11:54:44.636Z,4.43
2018-08-24T11:59:48.253Z,4.37
2018-08-24T12:04:51.958Z,7.40
2018-08-24T12:09:55.441Z,2.90
2018-08-24T12:14:59.000Z,3.70
2018-08-24T12:20:02.519Z,2.50
2018-08-24T12:25:06.712Z,3.67
2018-08-24T12:30:12.391Z,1.30
2018-08-24T12:35:16.041Z,7.90
2018-08-24T12:40:19.596Z,4.00
2018-08-24T12:45:23.282Z,3.60
2018-08-24T12:50:27.081Z,4.27
2018-08-24T12:55:39.016Z,3.03
2018-08-24T13:00:42.787Z,2.83
2018-08-24T13:05:46.560Z,4.37
2018-08-24T13:10:50.281Z,4.03
2018-08-24T13:15:53.817Z,3.60
2018-08-24T13:20:58.205Z,3.23
2018-08-24T13:26:03.090Z,2.90
2018-08-24T13:31:06.650Z,1.87
2018-08-24T13:36:10.230Z,5.30
2018-08-24T13:41:13.839Z,2.30
2018-08-24T13:46:19.143Z,4.73
2018-08-24T13:51:22.732Z,2.37
2018-08-24T13:56:26.353Z,2.10
2018-08-24T14:01:30.093Z,3.00
2018-08-24T14:06:33.747Z,4.77
2018-08-24T14:11:37.504Z,2.03
2018-08-24T14:16:41.053Z,3.43
2018-08-24T14:21:44.753Z,2.87
2018-08-24T14:26:48.325Z,2.97
2018-08-24T14:31:51.979Z,3.07
2018-08-24T14:36:55.482Z,6.37
2018-08-24T14:41:59.147Z,6.20
2018-08-24T14:47:02.709Z,1.63
2018-08-24T14:52:06.718Z,3.07
2018-08-24T14:57:10.463Z,3.57
2018-08-24T15:02:13.938Z,3.30
2018-08-24T15:07:17.701Z,2.93
2018-08-24T15:12:21.218Z,1.83
2018-08-24T15:17:24.832Z,4.97
2018-08-24T15:22:28.402Z,3.70
2018-08-24T15:27:31.992Z,2.67
2018-08-24T15:32:35.541Z,3.40
2018-08-24T15:37:40.455Z,4.20
2018-08-24T15:42:43.968Z,1.10
2018-08-24T15:47:47.559Z,7.87
2018-08-24T15:52:51.239Z,3.53
2018-08-24T15:57:54.796Z,4.53
2018-08-24T16:02:58.262Z,2.00
2018-08-24T16:08:01.832Z,1.83
2018-08-24T16:13:05.576Z,1.33
2018-08-24T16:18:14.779Z,4.13
2018-08-24T16:23:18.446Z,5.50
2018-08-24T16:28:21.975Z,5.33
2018-08-24T16:33:25.465Z,4.17
2018-08-24T16:38:29.049Z,4.33
2018-08-24T16:43:32.568Z,2.10
2018-08-24T16:48:36.417Z,3.83
2018-08-24T16:53:40.569Z,1.60
2018-08-24T16:58:44.349Z,2.93
2018-08-24T17:03:48.038Z,4.80
2018-08-24T17:08:52.142Z,4.13
2018-08-24T17:13:56.145Z,3.07
2018-08-24T17:19:00.566Z,3.83
2018-08-24T17:24:04.210Z,3.57
2018-08-24T17:29:07.769Z,2.07
2018-08-24T17:34:11.328Z,3.63
2018-08-24T17:39:15.159Z,1.87
2018-08-24T17:44:19.163Z,3.97
2018-08-24T17:49:22.694Z,7.97
2018-08-24T17:54:26.243Z,3.20
2018-08-24T17:59:29.789Z,8.17
2018-08-24T18:04:33.864Z,7.73
2018-08-24T18:09:37.442Z,2.80
2018-08-24T18:14:42.677Z,3.50
2018-08-24T18:19:46.239Z,1.83
2018-08-24T18:24:50.370Z,4.50
2018-08-24T18:29:54.151Z,2.33
2018-08-24T18:34:58.212Z,2.98
2018-08-24T18:40:02.708Z,5.53
2018-08-24T18:45:06.595Z,4.97
2018-08-24T18:50:10.901Z,4.43
2018-08-24T18:55:14.565Z,1.43
2018-08-24T19:00:24.291Z,2.47
2018-08-24T19:05:28.170Z,3.40
2018-08-24T19:10:35.919Z,8.27
2018-08-24T19:15:39.445Z,2.50
2018-08-24T19:20:48.499Z,1.87
2018-08-24T19:25:51.972Z,4.87
2018-08-24T19:30:55.583Z,3.03
2018-08-24T19:36:00.230Z,4.47
2018-08-24T19:41:09.122Z,5.63
2018-08-24T19:46:22.824Z,2.83
2018-08-24T19:51:26.702Z,3.43
2018-08-24T19:56:30.276Z,3.60
2018-08-24T20:01:34.892Z,3.73
2018-08-24T20:06:44.244Z,2.77
2018-08-24T20:11:49.000Z,4.10
2018-08-24T20:16:58.180Z,2.77
2018-08-24T20:22:01.997Z,2.90
2018-08-24T20:27:06.143Z,2.27
2018-08-24T20:32:09.760Z,3.43
2018-08-24T20:37:13.909Z,4.13
2018-08-24T20:42:18.056Z,4.67
2018-08-24T20:47:21.707Z,7.63
2018-08-24T20:52:25.248Z,2.17
2018-08-24T20:57:28.855Z,3.37
2018-08-24T21:02:32.729Z,6.13
2018-08-24T21:07:36.319Z,1.20
2018-08-24T21:12:40.385Z,5.63
2018-08-24T21:17:44.198Z,4.40
2018-08-24T21:22:48.314Z,2.23
2018-08-24T21:27:52.998Z,1.57
2018-08-24T21:32:56.595Z,3.00
2018-08-24T21:38:00.125Z,1.53
2018-08-24T21:43:03.716Z,1.97
2018-08-24T21:48:07.470Z,3.43
2018-08-24T21:53:11.107Z,3.67
2018-08-24T21:58:14.833Z,2.70
2018-08-24T22:03:18.384Z,2.63
2018-08-24T22:08:21.962Z,6.50
2018-08-24T22:13:25.502Z,1.93
2018-08-24T22:18:29.543Z,1.53
2018-08-24T22:23:33.151Z,2.47
2018-08-24T22:28:36.856Z,1.13
2018-08-24T22:33:40.433Z,0.73
2018-08-24T22:38:43.927Z,1.97
2018-08-24T22:43:47.479Z,1.50
2018-08-24T22:48:50.935Z,2.33
2018-08-24T22:53:54.960Z,1.50
2018-08-24T22:58:58.826Z,1.63
2018-08-24T23:04:02.382Z,2.40
2018-08-24T23:09:08.502Z,2.57
2018-08-24T23:14:12.073Z,6.33
2018-08-24T23:19:16.479Z,2.23
2018-08-24T23:24:20.020Z,2.03
2018-08-24T23:29:24.106Z,3.03
2018-08-24T23:34:27.867Z,2.07
2018-08-24T23:39:31.505Z,4.23
2018-08-24T23:44:35.102Z,4.20
2018-08-24T23:49:38.978Z,1.67
2018-08-24T23:54:42.658Z,5.13
2018-08-24T23:59:46.217Z,2.77
